sensor_id;sensor_type;location;lat;lon;timestamp;pressure;altitude;pressure_sealevel;temperature;humidity
71768;BME280;59604;52.138;5.446;2023-03-25T00:02:05;100167.06;;;16.89;51.85
71768;BME280;59604;52.138;5.446;2023-03-25T00:04:31;100168.38;;;16.87;52.15
71768;BME280;59604;52.138;5.446;2023-03-25T00:07:00;100160.63;;;16.85;52.11
71768;BME280;59604;52.138;5.446;2023-03-25T00:09:28;100160.09;;;16.83;51.87
71768;BME280;59604;52.138;5.446;2023-03-25T00:11:54;100167.75;;;16.80;51.91
71768;BME280;59604;52.138;5.446;2023-03-25T00:14:21;100177.03;;;16.77;51.97
71768;BME280;59604;52.138;5.446;2023-03-25T00:16:47;100179.94;;;16.76;52.09
71768;BME280;59604;52.138;5.446;2023-03-25T00:19:18;100167.66;;;16.75;52.14
71768;BME280;59604;52.138;5.446;2023-03-25T00:21:47;100168.94;;;16.72;52.11
71768;BME280;59604;52.138;5.446;2023-03-25T00:24:16;100166.19;;;16.67;52.15
71768;BME280;59604;52.138;5.446;2023-03-25T00:26:44;100165.66;;;16.65;52.32
71768;BME280;59604;52.138;5.446;2023-03-25T00:29:11;100164.03;;;16.64;52.54
71768;BME280;59604;52.138;5.446;2023-03-25T00:31:38;100167.75;;;16.63;52.34
71768;BME280;59604;52.138;5.446;2023-03-25T00:34:06;100159.22;;;16.61;52.29
71768;BME280;59604;52.138;5.446;2023-03-25T00:36:33;100164.53;;;16.61;52.47
71768;BME280;59604;52.138;5.446;2023-03-25T00:39:07;100173.53;;;16.60;52.47
71768;BME280;59604;52.138;5.446;2023-03-25T00:41:33;100166.88;;;16.57;52.33
71768;BME280;59604;52.138;5.446;2023-03-25T00:44:03;100160.19;;;16.55;52.56
71768;BME280;59604;52.138;5.446;2023-03-25T00:46:31;100163.31;;;16.52;52.66
71768;BME280;59604;52.138;5.446;2023-03-25T00:48:58;100155.59;;;16.50;52.69
71768;BME280;59604;52.138;5.446;2023-03-25T00:51:26;100167.28;;;16.49;52.53
71768;BME280;59604;52.138;5.446;2023-03-25T00:53:55;100162.47;;;16.46;52.74
71768;BME280;59604;52.138;5.446;2023-03-25T00:56:22;100165.34;;;16.45;52.58
71768;BME280;59604;52.138;5.446;2023-03-25T00:58:49;100175.44;;;16.42;52.61
71768;BME280;59604;52.138;5.446;2023-03-25T01:01:19;100170.13;;;16.42;52.60
71768;BME280;59604;52.138;5.446;2023-03-25T01:03:50;100168.25;;;16.43;52.72
71768;BME280;59604;52.138;5.446;2023-03-25T01:06:25;100162.94;;;16.43;52.60
71768;BME280;59604;52.138;5.446;2023-03-25T01:08:56;100173.00;;;16.41;52.61
71768;BME280;59604;52.138;5.446;2023-03-25T01:11:25;100172.69;;;16.37;52.62
71768;BME280;59604;52.138;5.446;2023-03-25T01:13:56;100169.22;;;16.37;52.65
71768;BME280;59604;52.138;5.446;2023-03-25T01:16:25;100169.47;;;16.35;52.78
71768;BME280;59604;52.138;5.446;2023-03-25T01:18:53;100171.88;;;16.37;52.71
71768;BME280;59604;52.138;5.446;2023-03-25T01:21:20;100167.13;;;16.39;53.02
71768;BME280;59604;52.138;5.446;2023-03-25T01:23:46;100166.88;;;16.40;52.69
71768;BME280;59604;52.138;5.446;2023-03-25T01:26:13;100158.09;;;16.40;52.71
71768;BME280;59604;52.138;5.446;2023-03-25T01:28:41;100161.00;;;16.38;52.83
71768;BME280;59604;52.138;5.446;2023-03-25T01:31:11;100168.97;;;16.38;52.53
71768;BME280;59604;52.138;5.446;2023-03-25T01:33:38;100167.34;;;16.37;52.59
71768;BME280;59604;52.138;5.446;2023-03-25T01:36:05;100157.78;;;16.36;52.85
71768;BME280;59604;52.138;5.446;2023-03-25T01:38:35;100154.31;;;16.36;52.89
71768;BME280;59604;52.138;5.446;2023-03-25T01:41:02;100155.38;;;16.35;52.92
71768;BME280;59604;52.138;5.446;2023-03-25T01:43:30;100157.22;;;16.34;53.03
71768;BME280;59604;52.138;5.446;2023-03-25T01:45:57;100144.97;;;16.33;52.87
71768;BME280;59604;52.138;5.446;2023-03-25T01:48:31;100151.09;;;16.34;53.19
71768;BME280;59604;52.138;5.446;2023-03-25T01:51:10;100157.22;;;16.34;53.02
71768;BME280;59604;52.138;5.446;2023-03-25T01:53:39;100157.22;;;16.34;53.02
71768;BME280;59604;52.138;5.446;2023-03-25T01:56:07;100151.34;;;16.32;53.21
71768;BME280;59604;52.138;5.446;2023-03-25T01:58:35;100147.88;;;16.32;53.22
71768;BME280;59604;52.138;5.446;2023-03-25T02:01:03;100146.03;;;16.32;53.30
71768;BME280;59604;52.138;5.446;2023-03-25T02:03:30;100146.25;;;16.31;53.25
71768;BME280;59604;52.138;5.446;2023-03-25T02:06:06;100149.16;;;16.29;53.44
71768;BME280;59604;52.138;5.446;2023-03-25T02:08:36;100149.75;;;16.31;53.43
71768;BME280;59604;52.138;5.446;2023-03-25T02:11:05;100147.09;;;16.31;53.30
71768;BME280;59604;52.138;5.446;2023-03-25T02:13:33;100152.63;;;16.30;53.38
71768;BME280;59604;52.138;5.446;2023-03-25T02:16:27;100147.56;;;16.28;53.41
71768;BME280;59604;52.138;5.446;2023-03-25T02:19:24;100144.91;;;16.28;53.54
71768;BME280;59604;52.138;5.446;2023-03-25T02:22:25;100145.13;;;16.27;53.60
71768;BME280;59604;52.138;5.446;2023-03-25T02:25:18;100143.28;;;16.27;53.67
71768;BME280;59604;52.138;5.446;2023-03-25T02:28:20;100132.31;;;16.24;53.72
71768;BME280;59604;52.138;5.446;2023-03-25T02:31:32;100146.19;;;16.26;53.68
71768;BME280;59604;52.138;5.446;2023-03-25T02:34:22;100148.28;;;16.24;53.76
71768;BME280;59604;52.138;5.446;2023-03-25T02:37:08;100137.91;;;16.22;53.85
71768;BME280;59604;52.138;5.446;2023-03-25T02:40:09;100136.84;;;16.23;53.88
71768;BME280;59604;52.138;5.446;2023-03-25T02:42:49;100147.47;;;16.23;53.90
71768;BME280;59604;52.138;5.446;2023-03-25T02:45:27;100145.88;;;16.22;53.84
71768;BME280;59604;52.138;5.446;2023-03-25T02:48:09;100144.00;;;16.23;53.99
71768;BME280;59604;52.138;5.446;2023-03-25T02:50:40;100144.81;;;16.23;54.02
71768;BME280;59604;52.138;5.446;2023-03-25T02:53:13;100143.22;;;16.22;53.94
71768;BME280;59604;52.138;5.446;2023-03-25T02:55:43;100138.94;;;16.21;54.19
71768;BME280;59604;52.138;5.446;2023-03-25T02:58:16;100137.09;;;16.22;54.18
71768;BME280;59604;52.138;5.446;2023-03-25T03:00:43;100134.44;;;16.22;54.18
71768;BME280;59604;52.138;5.446;2023-03-25T03:03:10;100132.03;;;16.20;54.09
71768;BME280;59604;52.138;5.446;2023-03-25T03:05:40;100130.19;;;16.21;54.13
71768;BME280;59604;52.138;5.446;2023-03-25T03:11:49;100115.56;;;16.23;54.25
71768;BME280;59604;52.138;5.446;2023-03-25T03:14:36;100112.13;;;16.23;54.17
71768;BME280;59604;52.138;5.446;2023-03-25T03:17:18;100112.13;;;16.23;54.31
71768;BME280;59604;52.138;5.446;2023-03-25T03:23:07;100123.00;;;16.21;54.28
71768;BME280;59604;52.138;5.446;2023-03-25T03:28:24;100118.97;;;16.18;54.35
71768;BME280;59604;52.138;5.446;2023-03-25T03:30:59;100121.63;;;16.18;54.48
71768;BME280;59604;52.138;5.446;2023-03-25T03:33:39;100114.94;;;16.16;54.43
71768;BME280;59604;52.138;5.446;2023-03-25T03:36:12;100106.97;;;16.16;54.61
71768;BME280;59604;52.138;5.446;2023-03-25T03:38:43;100118.44;;;16.16;54.62
71768;BME280;59604;52.138;5.446;2023-03-25T03:41:17;100110.69;;;16.15;54.62
71768;BME280;59604;52.138;5.446;2023-03-25T03:43:56;100111.97;;;16.12;54.70
71768;BME280;59604;52.138;5.446;2023-03-25T03:46:48;100114.63;;;16.12;54.67
71768;BME280;59604;52.138;5.446;2023-03-25T03:49:21;100108.28;;;16.13;54.77
71768;BME280;59604;52.138;5.446;2023-03-25T03:51:57;100097.88;;;16.12;54.74
71768;BME280;59604;52.138;5.446;2023-03-25T03:54:27;100105.84;;;16.12;54.76
71768;BME280;59604;52.138;5.446;2023-03-25T03:57:06;100105.03;;;16.11;54.71
71768;BME280;59604;52.138;5.446;2023-03-25T04:02:37;100092.25;;;16.08;54.89
71768;BME280;59604;52.138;5.446;2023-03-25T04:05:06;100099.41;;;16.08;54.94
71768;BME280;59604;52.138;5.446;2023-03-25T04:07:40;100102.06;;;16.08;54.93
71768;BME280;59604;52.138;5.446;2023-03-25T04:10:20;100104.72;;;16.08;55.14
71768;BME280;59604;52.138;5.446;2023-03-25T04:12:51;100102.06;;;16.08;55.13
71768;BME280;59604;52.138;5.446;2023-03-25T04:15:18;100092.00;;;16.10;54.97
71768;BME280;59604;52.138;5.446;2023-03-25T04:17:45;100090.16;;;16.10;55.08
71768;BME280;59604;52.138;5.446;2023-03-25T04:20:15;100083.78;;;16.11;54.83
71768;BME280;59604;52.138;5.446;2023-03-25T04:22:42;100094.41;;;16.11;54.88
71768;BME280;59604;52.138;5.446;2023-03-25T04:25:12;100081.38;;;16.10;55.10
71768;BME280;59604;52.138;5.446;2023-03-25T04:27:39;100083.25;;;16.09;54.85
71768;BME280;59604;52.138;5.446;2023-03-25T04:30:07;100088.56;;;16.09;54.97
71768;BME280;59604;52.138;5.446;2023-03-25T04:32:34;100092.50;;;16.07;55.17
71768;BME280;59604;52.138;5.446;2023-03-25T04:35:01;100100.47;;;16.07;55.05
71768;BME280;59604;52.138;5.446;2023-03-25T04:37:29;100103.13;;;16.07;55.21
71768;BME280;59604;52.138;5.446;2023-03-25T04:39:55;100088.47;;;16.04;55.16
71768;BME280;59604;52.138;5.446;2023-03-25T04:42:25;100075.19;;;16.04;55.34
71768;BME280;59604;52.138;5.446;2023-03-25T07:45:02;100188.16;;;19.38;47.68
71768;BME280;59604;52.138;5.446;2023-03-25T07:47:29;100184.97;;;19.41;47.56
71768;BME280;59604;52.138;5.446;2023-03-25T07:49:56;100186.28;;;19.44;47.56
71768;BME280;59604;52.138;5.446;2023-03-25T07:52:23;100199.13;;;19.47;47.65
71768;BME280;59604;52.138;5.446;2023-03-25T07:54:50;100178.03;;;19.45;47.34
71768;BME280;59604;52.138;5.446;2023-03-25T07:57:16;100189.25;;;19.42;47.52
71768;BME280;59604;52.138;5.446;2023-03-25T07:59:43;100186.56;;;19.37;47.40
71768;BME280;59604;52.138;5.446;2023-03-25T08:02:14;100175.59;;;19.34;47.32
71768;BME280;59604;52.138;5.446;2023-03-25T08:04:41;100195.63;;;19.31;47.30
71768;BME280;59604;52.138;5.446;2023-03-25T08:07:07;100180.91;;;19.28;47.24
71768;BME280;59604;52.138;5.446;2023-03-25T08:09:34;100188.13;;;19.23;47.53
71768;BME280;59604;52.138;5.446;2023-03-25T08:12:01;100185.41;;;19.18;47.28
71768;BME280;59604;52.138;5.446;2023-03-25T08:14:28;100192.03;;;19.10;47.44
71768;BME280;59604;52.138;5.446;2023-03-25T08:16:54;100184.56;;;19.07;47.70
71768;BME280;59604;52.138;5.446;2023-03-25T08:19:21;100201.34;;;19.02;47.58
71768;BME280;59604;52.138;5.446;2023-03-25T08:21:48;100209.56;;;18.91;47.69
71768;BME280;59604;52.138;5.446;2023-03-25T08:24:14;100203.88;;;18.77;48.15
71768;BME280;59604;52.138;5.446;2023-03-25T08:26:41;100213.63;;;18.61;48.58
71768;BME280;59604;52.138;5.446;2023-03-25T08:29:08;100210.16;;;18.61;48.70
71768;BME280;59604;52.138;5.446;2023-03-25T08:31:36;100210.34;;;18.49;48.64
71768;BME280;59604;52.138;5.446;2023-03-25T08:34:04;100204.41;;;18.42;48.88
71768;BME280;59604;52.138;5.446;2023-03-25T08:36:31;100214.50;;;18.34;49.39
71768;BME280;59604;52.138;5.446;2023-03-25T08:38:58;100212.63;;;18.35;49.31
71768;BME280;59604;52.138;5.446;2023-03-25T08:41:24;100232.59;;;18.32;49.52
71768;BME280;59604;52.138;5.446;2023-03-25T08:43:51;100219.75;;;18.29;49.50
71768;BME280;59604;52.138;5.446;2023-03-25T08:46:18;100219.44;;;18.21;49.53
71768;BME280;59604;52.138;5.446;2023-03-25T08:48:44;100211.59;;;18.09;49.94
71768;BME280;59604;52.138;5.446;2023-03-25T08:51:12;100206.50;;;18.07;50.18
71768;BME280;59604;52.138;5.446;2023-03-25T08:53:38;100205.19;;;18.10;50.07
71768;BME280;59604;52.138;5.446;2023-03-25T08:56:05;100205.47;;;18.08;50.12
71768;BME280;59604;52.138;5.446;2023-03-25T08:58:32;100215.56;;;18.06;50.33
71768;BME280;59604;52.138;5.446;2023-03-25T09:00:59;100215.88;;;18.10;50.14
71768;BME280;59604;52.138;5.446;2023-03-25T09:03:26;100225.72;;;18.09;50.30
71768;BME280;59604;52.138;5.446;2023-03-25T09:05:52;100216.94;;;18.09;50.41
71768;BME280;59604;52.138;5.446;2023-03-25T09:08:20;100217.72;;;18.09;50.33
71768;BME280;59604;52.138;5.446;2023-03-25T09:10:47;100212.69;;;18.13;50.28
71768;BME280;59604;52.138;5.446;2023-03-25T09:13:14;100212.97;;;18.12;50.35
71768;BME280;59604;52.138;5.446;2023-03-25T09:15:40;100210.50;;;18.05;50.53
71768;BME280;59604;52.138;5.446;2023-03-25T09:18:07;100216.88;;;18.04;50.69
71768;BME280;59604;52.138;5.446;2023-03-25T09:20:35;100209.41;;;18.01;50.65
71768;BME280;59604;52.138;5.446;2023-03-25T09:23:02;100208.84;;;17.99;50.67
71768;BME280;59604;52.138;5.446;2023-03-25T09:25:28;100209.09;;;17.97;50.87
71768;BME280;59604;52.138;5.446;2023-03-25T09:27:55;100222.13;;;17.94;50.75
71768;BME280;59604;52.138;5.446;2023-03-25T09:30:21;100219.38;;;17.89;51.08
71768;BME280;59604;52.138;5.446;2023-03-25T09:32:48;100233.78;;;17.88;51.16
71768;BME280;59604;52.138;5.446;2023-03-25T09:35:15;100231.91;;;17.88;51.24
71768;BME280;59604;52.138;5.446;2023-03-25T09:37:42;100223.69;;;17.90;50.91
71768;BME280;59604;52.138;5.446;2023-03-25T09:40:15;100227.34;;;17.83;51.24
71768;BME280;59604;52.138;5.446;2023-03-25T09:43:02;100228.25;;;17.94;51.35
71768;BME280;59604;52.138;5.446;2023-03-25T09:45:35;100223.44;;;17.96;51.09
71768;BME280;59604;52.138;5.446;2023-03-25T09:50:44;100228.00;;;17.74;51.56
71768;BME280;59604;52.138;5.446;2023-03-25T09:55:59;100231.91;;;17.66;51.63
71768;BME280;59604;52.138;5.446;2023-03-25T09:58:33;100225.97;;;17.59;51.70
71768;BME280;59604;52.138;5.446;2023-03-25T10:12:47;100262.69;;;17.57;51.75
71768;BME280;59604;52.138;5.446;2023-03-25T10:15:25;100245.66;;;17.58;51.85
71768;BME280;59604;52.138;5.446;2023-03-25T10:20:48;100241.41;;;17.57;51.78
71768;BME280;59604;52.138;5.446;2023-03-25T10:26:18;100252.16;;;17.45;52.09
71768;BME280;59604;52.138;5.446;2023-03-25T10:29:01;100254.00;;;17.45;52.15
71768;BME280;59604;52.138;5.446;2023-03-25T10:31:33;100255.38;;;17.47;52.06
71768;BME280;59604;52.138;5.446;2023-03-25T10:34:06;100259.66;;;17.48;51.94
71768;BME280;59604;52.138;5.446;2023-03-25T10:36:36;100257.25;;;17.47;51.99
71768;BME280;59604;52.138;5.446;2023-03-25T10:39:11;100247.22;;;17.54;52.10
71768;BME280;59604;52.138;5.446;2023-03-25T10:41:40;100249.69;;;17.60;51.62
71768;BME280;59604;52.138;5.446;2023-03-25T10:44:09;100249.31;;;17.52;51.41
71768;BME280;59604;52.138;5.446;2023-03-25T10:46:45;100254.41;;;17.53;51.57
71768;BME280;59604;52.138;5.446;2023-03-25T10:49:19;100257.69;;;17.60;51.35
71768;BME280;59604;52.138;5.446;2023-03-25T10:51:49;100258.53;;;17.66;51.11
71768;BME280;59604;52.138;5.446;2023-03-25T10:54:20;100262.06;;;17.72;50.95
71768;BME280;59604;52.138;5.446;2023-03-25T10:56:50;100256.56;;;17.78;50.92
71768;BME280;59604;52.138;5.446;2023-03-25T10:59:55;100256.88;;;17.82;51.04
71768;BME280;59604;52.138;5.446;2023-03-25T11:02:25;100262.19;;;17.82;50.58
71768;BME280;59604;52.138;5.446;2023-03-25T11:04:59;100265.94;;;17.81;50.25
71768;BME280;59604;52.138;5.446;2023-03-25T11:07:31;100272.19;;;17.92;50.37
71768;BME280;59604;52.138;5.446;2023-03-25T11:12:39;100273.97;;;18.08;50.16
71768;BME280;59604;52.138;5.446;2023-03-25T11:15:16;100272.44;;;18.17;49.85
71768;BME280;59604;52.138;5.446;2023-03-25T11:17:45;100277.88;;;18.27;49.50
71768;BME280;59604;52.138;5.446;2023-03-25T11:20:18;100284.56;;;18.30;49.45
71768;BME280;59604;52.138;5.446;2023-03-25T11:22:49;100278.19;;;18.31;49.24
71768;BME280;59604;52.138;5.446;2023-03-25T11:25:23;100296.59;;;18.32;49.61
71768;BME280;59604;52.138;5.446;2023-03-25T11:27:54;100271.81;;;18.37;49.11
71768;BME280;59604;52.138;5.446;2023-03-25T11:30:23;100280.53;;;18.27;49.47
71768;BME280;59604;52.138;5.446;2023-03-25T11:33:02;100276.63;;;18.35;49.27
71768;BME280;59604;52.138;5.446;2023-03-25T11:35:34;100294.50;;;18.40;48.94
71768;BME280;59604;52.138;5.446;2023-03-25T11:38:19;100286.00;;;18.43;49.16
71768;BME280;59604;52.138;5.446;2023-03-25T11:40:55;100287.63;;;18.44;49.03
71768;BME280;59604;52.138;5.446;2023-03-25T11:43:27;100287.13;;;18.47;48.85
71768;BME280;59604;52.138;5.446;2023-03-25T11:45:55;100285.25;;;18.47;48.50
71768;BME280;59604;52.138;5.446;2023-03-25T11:48:23;100280.47;;;18.49;48.37
71768;BME280;59604;52.138;5.446;2023-03-25T11:50:58;100279.97;;;18.52;48.48
71768;BME280;59604;52.138;5.446;2023-03-25T11:53:25;100278.44;;;18.62;48.33
71768;BME280;59604;52.138;5.446;2023-03-25T11:55:55;100275.53;;;18.63;48.24
71768;BME280;59604;52.138;5.446;2023-03-25T11:58:28;100284.38;;;18.69;48.25
71768;BME280;59604;52.138;5.446;2023-03-25T12:01:19;100288.03;;;18.63;48.36
71768;BME280;59604;52.138;5.446;2023-03-25T12:03:46;100279.50;;;18.61;47.92
71768;BME280;59604;52.138;5.446;2023-03-25T12:06:21;100285.63;;;18.61;48.15
71768;BME280;59604;52.138;5.446;2023-03-25T12:08:52;100278.94;;;18.58;48.14
71768;BME280;59604;52.138;5.446;2023-03-25T12:11:29;100279.41;;;18.50;48.30
71768;BME280;59604;52.138;5.446;2023-03-25T12:14:33;100274.84;;;18.46;48.55
71768;BME280;59604;52.138;5.446;2023-03-25T12:36:38;100267.50;;;18.31;48.61
71768;BME280;59604;52.138;5.446;2023-03-25T12:42:15;100260.84;;;18.33;48.72
71768;BME280;59604;52.138;5.446;2023-03-25T12:44:59;100265.91;;;18.30;48.69
71768;BME280;59604;52.138;5.446;2023-03-25T12:47:42;100272.78;;;18.26;48.80
71768;BME280;59604;52.138;5.446;2023-03-25T12:56:12;100265.50;;;18.48;48.18
71768;BME280;59604;52.138;5.446;2023-03-25T13:01:45;100264.59;;;18.65;47.76
71768;BME280;59604;52.138;5.446;2023-03-25T13:07:03;100273.59;;;18.58;47.27
71768;BME280;59604;52.138;5.446;2023-03-25T13:09:42;100276.47;;;18.52;47.18
71768;BME280;59604;52.138;5.446;2023-03-25T13:12:45;100277.53;;;18.51;47.57
71768;BME280;59604;52.138;5.446;2023-03-25T13:15:38;100273.81;;;18.52;47.07
71768;BME280;59604;52.138;5.446;2023-03-25T13:18:13;100264.00;;;18.57;46.50
71768;BME280;59604;52.138;5.446;2023-03-25T13:20:45;100283.19;;;18.54;46.37
71768;BME280;59604;52.138;5.446;2023-03-25T13:23:17;100281.97;;;18.40;46.56
71768;BME280;59604;52.138;5.446;2023-03-25T13:28:21;100300.94;;;18.44;47.29
71768;BME280;59604;52.138;5.446;2023-03-25T13:30:49;100294.66;;;18.55;46.89
71768;BME280;59604;52.138;5.446;2023-03-25T13:33:19;100289.09;;;18.62;46.99
71768;BME280;59604;52.138;5.446;2023-03-25T13:35:54;100291.09;;;18.71;47.28
71768;BME280;59604;52.138;5.446;2023-03-25T13:38:42;100293.28;;;18.79;46.60
71768;BME280;59604;52.138;5.446;2023-03-25T13:41:22;100287.81;;;18.96;46.66
71768;BME280;59604;52.138;5.446;2023-03-25T13:43:59;100292.19;;;19.13;45.97
71768;BME280;59604;52.138;5.446;2023-03-25T13:46:35;100312.50;;;19.19;45.72
71768;BME280;59604;52.138;5.446;2023-03-25T13:49:10;100319.59;;;19.03;45.86
71768;BME280;59604;52.138;5.446;2023-03-25T13:51:39;100276.56;;;18.89;45.93
71768;BME280;59604;52.138;5.446;2023-03-25T13:54:11;100296.53;;;18.87;45.87
71768;BME280;59604;52.138;5.446;2023-03-25T14:02:38;100297.38;;;19.35;44.78
71768;BME280;59604;52.138;5.446;2023-03-25T14:12:05;100369.63;;;18.58;47.13
71768;BME280;59604;52.138;5.446;2023-03-25T14:14:17;100383.38;;;18.45;47.57
71768;BME280;59604;52.138;5.446;2023-03-25T14:16:49;100384.13;;;18.41;47.95
71768;BME280;59604;52.138;5.446;2023-03-25T14:19:21;100381.41;;;18.35;48.53
71768;BME280;59604;52.138;5.446;2023-03-25T14:21:51;100374.09;;;18.26;48.99
71768;BME280;59604;52.138;5.446;2023-03-25T14:24:27;100374.84;;;18.21;49.22
71768;BME280;59604;52.138;5.446;2023-03-25T14:27:05;100378.44;;;18.32;49.13
71768;BME280;59604;52.138;5.446;2023-03-25T14:29:38;100375.31;;;18.94;48.47
71768;BME280;59604;52.138;5.446;2023-03-25T14:34:42;100372.09;;;20.40;45.59
71768;BME280;59604;52.138;5.446;2023-03-25T14:39:52;100358.25;;;21.30;43.47
71768;BME280;59604;52.138;5.446;2023-03-25T14:42:41;100373.00;;;21.37;43.37
71768;BME280;59604;52.138;5.446;2023-03-25T14:47:55;100347.56;;;20.68;44.34
71768;BME280;59604;52.138;5.446;2023-03-25T14:52:51;100354.19;;;20.35;45.14
71768;BME280;59604;52.138;5.446;2023-03-25T14:55:27;100363.22;;;20.14;45.71
71768;BME280;59604;52.138;5.446;2023-03-25T14:57:58;100362.69;;;20.17;45.83
71768;BME280;59604;52.138;5.446;2023-03-25T15:00:33;100354.09;;;20.05;45.88
71768;BME280;59604;52.138;5.446;2023-03-25T15:03:12;100360.88;;;19.65;46.34
71768;BME280;59604;52.138;5.446;2023-03-25T15:05:42;100374.81;;;19.35;46.71
71768;BME280;59604;52.138;5.446;2023-03-25T15:08:12;100365.03;;;19.08;46.92
71768;BME280;59604;52.138;5.446;2023-03-25T15:11:04;100364.63;;;18.89;47.25
71768;BME280;59604;52.138;5.446;2023-03-25T15:16:04;100372.25;;;18.53;47.45
71768;BME280;59604;52.138;5.446;2023-03-25T15:26:12;100493.13;;;18.15;47.85
71768;BME280;59604;52.138;5.446;2023-03-25T15:31:31;100477.13;;;17.93;48.15
71768;BME280;59604;52.138;5.446;2023-03-25T15:39:58;100476.34;;;17.76;48.73
71768;BME280;59604;52.138;5.446;2023-03-25T15:48:36;100497.38;;;17.60;49.09
71768;BME280;59604;52.138;5.446;2023-03-25T15:56:55;100492.88;;;17.61;49.72
71768;BME280;59604;52.138;5.446;2023-03-25T15:59:32;100504.56;;;17.60;49.60
71768;BME280;59604;52.138;5.446;2023-03-25T16:02:14;100491.88;;;17.67;49.91
71768;BME280;59604;52.138;5.446;2023-03-25T16:04:46;100482.69;;;17.75;49.69
71768;BME280;59604;52.138;5.446;2023-03-25T16:07:16;100484.06;;;17.77;49.59
71768;BME280;59604;52.138;5.446;2023-03-25T16:09:47;100482.59;;;17.70;49.83
71768;BME280;59604;52.138;5.446;2023-03-25T16:12:23;100481.53;;;17.71;50.06
71768;BME280;59604;52.138;5.446;2023-03-25T16:14:51;100480.25;;;17.73;50.25
71768;BME280;59604;52.138;5.446;2023-03-25T16:17:19;100484.31;;;17.76;50.16
71768;BME280;59604;52.138;5.446;2023-03-25T16:19:51;100492.38;;;17.81;50.15
71768;BME280;59604;52.138;5.446;2023-03-25T16:22:24;100500.69;;;17.84;50.24
71768;BME280;59604;52.138;5.446;2023-03-25T16:24:54;100491.41;;;17.87;50.38
71768;BME280;59604;52.138;5.446;2023-03-25T16:27:24;100506.34;;;17.88;50.51
71768;BME280;59604;52.138;5.446;2023-03-25T16:29:53;100525.31;;;17.92;50.44
71768;BME280;59604;52.138;5.446;2023-03-25T16:32:25;100529.38;;;17.94;50.45
71768;BME280;59604;52.138;5.446;2023-03-25T16:34:56;100516.53;;;17.91;50.50
71768;BME280;59604;52.138;5.446;2023-03-25T16:37:23;100524.50;;;17.91;50.65
71768;BME280;59604;52.138;5.446;2023-03-25T16:39:53;100538.91;;;17.90;50.17
71768;BME280;59604;52.138;5.446;2023-03-25T16:42:25;100518.13;;;17.92;49.97
71768;BME280;59604;52.138;5.446;2023-03-25T16:44:52;100500.84;;;17.95;49.90
71768;BME280;59604;52.138;5.446;2023-03-25T16:47:20;100508.84;;;17.95;49.85
71768;BME280;59604;52.138;5.446;2023-03-25T16:49:50;100502.88;;;17.88;49.98
71768;BME280;59604;52.138;5.446;2023-03-25T16:52:24;100510.63;;;17.89;49.89
71768;BME280;59604;52.138;5.446;2023-03-25T16:57:20;100531.47;;;17.75;50.12
71768;BME280;59604;52.138;5.446;2023-03-25T16:59:49;100527.88;;;17.70;50.33
71768;BME280;59604;52.138;5.446;2023-03-25T17:02:30;100532.22;;;17.59;50.40
71768;BME280;59604;52.138;5.446;2023-03-25T17:07:41;100542.78;;;17.37;51.06
71768;BME280;59604;52.138;5.446;2023-03-25T17:10:42;100556.50;;;17.29;51.24
71768;BME280;59604;52.138;5.446;2023-03-25T17:13:21;100548.66;;;17.22;51.33
71768;BME280;59604;52.138;5.446;2023-03-25T17:15:49;100565.34;;;17.18;51.77
71768;BME280;59604;52.138;5.446;2023-03-25T17:18:16;100564.19;;;17.13;51.93
71768;BME280;59604;52.138;5.446;2023-03-25T17:20:46;100551.94;;;17.12;51.87
71768;BME280;59604;52.138;5.446;2023-03-25T17:23:19;100560.41;;;17.09;51.95
71768;BME280;59604;52.138;5.446;2023-03-25T17:25:50;100567.78;;;17.07;51.97
71768;BME280;59604;52.138;5.446;2023-03-25T17:31:27;100575.34;;;16.99;52.26
71768;BME280;59604;52.138;5.446;2023-03-25T17:34:00;100582.41;;;16.93;52.46
71768;BME280;59604;52.138;5.446;2023-03-25T17:36:29;100584.75;;;16.89;52.59
71768;BME280;59604;52.138;5.446;2023-03-25T17:38:56;100586.03;;;16.87;52.70
71768;BME280;59604;52.138;5.446;2023-03-25T17:41:28;100583.84;;;16.84;52.63
71768;BME280;59604;52.138;5.446;2023-03-25T17:43:56;100580.84;;;16.80;53.10
71768;BME280;59604;52.138;5.446;2023-03-25T17:46:25;100582.91;;;16.78;53.01
71768;BME280;59604;52.138;5.446;2023-03-25T17:48:53;100595.19;;;16.79;53.10
71768;BME280;59604;52.138;5.446;2023-03-25T17:51:25;100598.88;;;16.78;52.97
71768;BME280;59604;52.138;5.446;2023-03-25T17:53:53;100604.91;;;16.74;53.11
71768;BME280;59604;52.138;5.446;2023-03-25T17:56:23;100626.88;;;16.69;53.33
71768;BME280;59604;52.138;5.446;2023-03-25T17:59:02;100611.38;;;16.66;53.54
71768;BME280;59604;52.138;5.446;2023-03-25T18:01:29;100624.06;;;16.64;53.82
71768;BME280;59604;52.138;5.446;2023-03-25T18:03:57;100611.84;;;16.63;53.92
71768;BME280;59604;52.138;5.446;2023-03-25T18:06:24;100609.53;;;16.55;53.96
71768;BME280;59604;52.138;5.446;2023-03-25T18:08:50;100614.75;;;16.50;54.45
71768;BME280;59604;52.138;5.446;2023-03-25T18:11:17;100617.16;;;16.51;54.61
71768;BME280;59604;52.138;5.446;2023-03-25T18:13:44;100616.69;;;16.54;54.49
71768;BME280;59604;52.138;5.446;2023-03-25T18:16:19;100626.41;;;16.49;54.45
71768;BME280;59604;52.138;5.446;2023-03-25T18:18:46;100638.53;;;16.45;54.79
71768;BME280;59604;52.138;5.446;2023-03-25T18:21:15;100641.66;;;16.41;55.05
71768;BME280;59604;52.138;5.446;2023-03-25T18:23:43;100652.88;;;16.43;54.95
71768;BME280;59604;52.138;5.446;2023-03-25T18:26:15;100658.91;;;16.39;55.36
71768;BME280;59604;52.138;5.446;2023-03-25T18:28:46;100657.50;;;16.36;55.38
71768;BME280;59604;52.138;5.446;2023-03-25T18:31:14;100657.84;;;16.28;55.38
71768;BME280;59604;52.138;5.446;2023-03-25T18:33:46;100657.03;;;16.28;55.49